createdAt,value
2016-07-11T00:02:05.170Z,40.4
2016-07-11T00:07:05.620Z,40.5
2016-07-11T00:12:05.717Z,40.4
2016-07-11T00:17:07.411Z,40.3
2016-07-11T00:22:05.805Z,40.2
2016-07-11T00:27:05.992Z,40.2
2016-07-11T00:32:05.994Z,40.1
2016-07-11T00:37:05.730Z,40.1
2016-07-11T00:42:05.171Z,40.0
2016-07-11T00:47:05.237Z,40.0
2016-07-11T00:52:04.915Z,40.0
2016-07-11T00:57:04.837Z,40.0
2016-07-11T01:02:06.244Z,40.1
2016-07-11T01:07:05.790Z,40.0
2016-07-11T01:12:05.978Z,40.0
2016-07-11T01:17:07.584Z,40.5
2016-07-11T01:22:05.603Z,40.0
2016-07-11T01:27:05.032Z,40.0
2016-07-11T01:32:05.445Z,40.1
2016-07-11T01:37:05.057Z,40.1
2016-07-11T01:42:05.579Z,40.1
2016-07-11T01:47:05.983Z,40.2
2016-07-11T01:52:05.523Z,40.1
2016-07-11T01:57:05.474Z,40.1
2016-07-11T02:02:06.223Z,40.1
2016-07-11T02:07:05.605Z,40.2
2016-07-11T02:12:05.878Z,40.4
2016-07-11T02:17:07.227Z,40.2
2016-07-11T02:22:05.444Z,40.3
2016-07-11T02:27:04.769Z,40.2
2016-07-11T02:32:05.693Z,40.3
2016-07-11T02:37:05.374Z,40.2
2016-07-11T02:42:04.912Z,40.1
2016-07-11T02:47:05.641Z,40.1
2016-07-11T02:52:05.798Z,40.0
2016-07-11T02:57:05.653Z,40.4
2016-07-11T03:02:19.270Z,40.1
2016-07-11T03:07:05.488Z,40.0
2016-07-11T03:12:04.697Z,40.1
2016-07-11T03:17:26.908Z,40.2
2016-07-11T03:22:04.552Z,40.2
2016-07-11T03:27:04.954Z,40.1
2016-07-11T03:32:30.545Z,40.1
2016-07-11T03:37:05.193Z,40.2
2016-07-11T03:42:05.136Z,40.2
2016-07-11T03:47:27.846Z,40.3
2016-07-11T03:52:05.643Z,40.2
2016-07-11T03:57:04.484Z,39.6
2016-07-11T04:02:27.942Z,40.1
2016-07-11T04:07:05.164Z,40.0
2016-07-11T04:12:05.139Z,40.0
2016-07-11T04:17:28.717Z,40.0
2016-07-11T04:22:05.230Z,40.0
2016-07-11T04:27:04.564Z,39.9
2016-07-11T04:32:28.574Z,39.9
2016-07-11T04:37:04.436Z,39.8
2016-07-11T04:42:04.506Z,39.8
2016-07-11T04:47:32.219Z,39.5
2016-07-11T04:52:04.698Z,39.5
2016-07-11T04:57:04.707Z,39.6
2016-07-11T05:02:27.668Z,39.7
2016-07-11T05:07:05.488Z,39.7
2016-07-11T05:12:04.459Z,39.7
2016-07-11T05:17:25.469Z,39.7
2016-07-11T05:22:04.048Z,39.7
2016-07-11T05:27:04.521Z,39.7
2016-07-11T05:32:25.136Z,39.6
2016-07-11T05:37:04.601Z,39.5
2016-07-11T05:42:04.533Z,39.4
2016-07-11T05:47:28.619Z,39.4
2016-07-11T05:52:05.172Z,39.6
2016-07-11T05:57:05.089Z,39.8
2016-07-11T06:02:26.867Z,39.7
2016-07-11T06:07:04.959Z,39.7
2016-07-11T06:12:04.751Z,39.5
2016-07-11T06:17:29.071Z,40.1
2016-07-11T06:22:04.762Z,39.8
2016-07-11T06:27:04.753Z,39.8
2016-07-11T06:32:29.969Z,39.8
2016-07-11T06:37:04.772Z,39.9
2016-07-11T06:42:04.898Z,39.5
2016-07-11T06:47:27.937Z,39.7
2016-07-11T06:52:05.242Z,39.3
2016-07-11T06:57:04.991Z,39.3
2016-07-11T07:02:29.000Z,39.1
2016-07-11T07:07:04.488Z,38.9
2016-07-11T07:12:04.751Z,38.9
2016-07-11T07:17:30.126Z,39.0
2016-07-11T07:22:05.227Z,39.2
2016-07-11T07:27:04.549Z,39.7
2016-07-11T07:32:30.252Z,40.2
2016-07-11T07:37:04.227Z,40.2
2016-07-11T07:42:04.544Z,40.1
2016-07-11T07:47:30.771Z,39.7
2016-07-11T07:52:04.717Z,39.6
2016-07-11T07:57:04.384Z,39.6
2016-07-11T08:02:29.613Z,40.1
2016-07-11T08:07:04.038Z,40.0
2016-07-11T08:12:05.444Z,40.4
2016-07-11T08:17:29.955Z,40.2
2016-07-11T08:22:04.885Z,40.2
2016-07-11T08:27:05.166Z,40.4
2016-07-11T08:32:29.935Z,40.0
2016-07-11T08:37:04.678Z,40.3
2016-07-11T08:42:04.543Z,40.3
2016-07-11T08:52:09.135Z,40.9
2016-07-11T08:57:05.361Z,40.8
2016-07-11T09:02:30.572Z,40.7
2016-07-11T09:07:04.861Z,40.6
2016-07-11T09:12:04.516Z,40.0
2016-07-11T09:22:10.580Z,40.5
2016-07-11T09:27:09.100Z,40.7
2016-07-11T09:32:35.174Z,40.4
2016-07-11T09:37:09.917Z,40.6
2016-07-11T09:42:04.496Z,40.6
2016-07-11T09:47:35.174Z,40.6
2016-07-11T09:52:04.676Z,40.6
2016-07-11T09:57:04.839Z,40.7
2016-07-11T10:02:35.972Z,40.7
2016-07-11T10:07:05.041Z,40.7
2016-07-11T10:12:05.263Z,40.9
2016-07-11T10:17:36.898Z,40.9
2016-07-11T10:22:05.633Z,40.7
2016-07-11T10:27:05.780Z,40.8
2016-07-11T10:32:32.533Z,41.0
2016-07-11T10:37:05.538Z,40.7
2016-07-11T10:42:05.416Z,40.9
2016-07-11T10:47:35.162Z,40.4
2016-07-11T10:52:04.687Z,40.3
2016-07-11T10:57:05.041Z,40.1
2016-07-11T11:02:31.972Z,40.6
2016-07-11T11:07:04.516Z,40.6
2016-07-11T11:12:04.757Z,40.5
2016-07-11T11:17:33.773Z,40.4
2016-07-11T11:22:04.986Z,40.3
2016-07-11T11:27:04.275Z,40.8
2016-07-11T11:32:27.957Z,40.6
2016-07-11T11:37:04.572Z,41.2
2016-07-11T11:42:04.482Z,41.2
2016-07-11T11:47:34.023Z,40.8
2016-07-11T11:52:04.800Z,40.4
2016-07-11T11:57:04.852Z,40.3
2016-07-11T12:02:30.744Z,40.3
2016-07-11T12:07:04.989Z,40.4
2016-07-11T12:12:10.202Z,40.8
2016-07-11T12:17:30.739Z,40.6
2016-07-11T12:22:04.617Z,40.8
2016-07-11T12:27:04.992Z,41.2
2016-07-11T12:32:31.153Z,41.7
2016-07-11T12:37:04.766Z,41.7
2016-07-11T12:42:05.114Z,42.2
2016-07-11T12:47:30.703Z,42.3
2016-07-11T12:52:05.156Z,42.3
2016-07-11T13:02:28.385Z,42.2
2016-07-11T13:07:04.913Z,42.6
2016-07-11T13:12:05.399Z,41.9
2016-07-11T13:17:33.932Z,41.1
2016-07-11T13:22:05.560Z,40.6
2016-07-11T13:27:04.609Z,40.0
2016-07-11T13:32:26.379Z,39.8
2016-07-11T13:37:05.151Z,39.8
2016-07-11T13:42:10.099Z,40.2
2016-07-11T13:47:32.024Z,40.1
2016-07-11T13:52:04.870Z,39.9
2016-07-11T13:57:04.712Z,40.0
2016-07-11T20:02:17.101Z,42.9
2016-07-11T20:07:05.241Z,42.9
2016-07-11T20:12:04.667Z,43.1
2016-07-11T20:17:07.804Z,43.2
2016-07-11T20:22:05.350Z,43.3
2016-07-11T20:27:06.001Z,43.2
2016-07-11T20:32:06.668Z,43.2
2016-07-11T20:37:05.532Z,43.0
2016-07-11T20:42:05.567Z,43.3
2016-07-11T20:47:06.085Z,43.1
2016-07-11T20:52:05.836Z,43.0
2016-07-11T20:57:05.132Z,43.3
2016-07-11T21:02:06.147Z,43.3
2016-07-11T21:07:04.739Z,43.4
2016-07-11T21:12:04.375Z,43.3
2016-07-11T21:17:08.085Z,43.3
2016-07-11T21:22:05.472Z,43.3
2016-07-11T21:27:05.901Z,43.1
2016-07-11T21:32:05.534Z,43.6
2016-07-11T21:37:05.796Z,42.8
2016-07-11T21:42:05.338Z,43.1
2016-07-11T21:47:06.000Z,43.2
2016-07-11T21:52:05.877Z,43.1
2016-07-11T21:57:05.141Z,43.1
2016-07-11T22:02:06.252Z,43.3
2016-07-11T22:07:06.531Z,43.1
2016-07-11T22:12:05.947Z,43.2
2016-07-11T22:17:07.717Z,43.2
2016-07-11T22:22:05.819Z,43.3
2016-07-11T22:27:05.947Z,43.2
2016-07-11T22:32:05.708Z,43.1
2016-07-11T22:37:05.724Z,43.2
2016-07-11T22:42:04.973Z,43.2
2016-07-11T22:47:05.575Z,43.3
2016-07-11T22:52:05.476Z,43.3
2016-07-11T22:57:05.698Z,43.3
2016-07-11T23:02:05.390Z,43.2
2016-07-11T23:07:04.755Z,43.4
2016-07-11T23:12:06.104Z,43.3
2016-07-11T23:17:07.391Z,43.4
2016-07-11T23:22:05.811Z,43.4
2016-07-11T23:27:05.279Z,43.2
2016-07-11T23:32:05.771Z,43.2
2016-07-11T23:37:05.219Z,43.2
2016-07-11T23:42:05.599Z,43.2
2016-07-11T23:47:06.174Z,43.3
2016-07-11T23:52:04.858Z,43.1
2016-07-11T23:57:05.994Z,43.0
